sensor_id;sensor_type;location;lat;lon;timestamp;pressure;altitude;pressure_sealevel;temperature;humidity
35989;BME280;22064;42.672;23.282;2024-02-26T00:00:07;94231.00;;;7.40;100.00
35989;BME280;22064;42.672;23.282;2024-02-26T00:02:39;94218.22;;;7.28;100.00
35989;BME280;22064;42.672;23.282;2024-02-26T00:05:06;94223.94;;;7.35;100.00
35989;BME280;22064;42.672;23.282;2024-02-26T00:07:32;94233.56;;;7.50;100.00
35989;BME280;22064;42.672;23.282;2024-02-26T00:09:58;94225.19;;;7.58;100.00
35989;BME280;22064;42.672;23.282;2024-02-26T00:12:24;94224.59;;;7.72;100.00
35989;BME280;22064;42.672;23.282;2024-02-26T00:14:50;94231.66;;;7.81;100.00
35989;BME280;22064;42.672;23.282;2024-02-26T00:17:18;94226.34;;;7.97;100.00
35989;BME280;22064;42.672;23.282;2024-02-26T00:19:44;94232.41;;;7.87;100.00
35989;BME280;22064;42.672;23.282;2024-02-26T00:22:09;94216.72;;;7.87;100.00
35989;BME280;22064;42.672;23.282;2024-02-26T00:24:35;94222.44;;;7.99;100.00
35989;BME280;22064;42.672;23.282;2024-02-26T00:27:01;94217.22;;;7.94;100.00
35989;BME280;22064;42.672;23.282;2024-02-26T00:29:27;94217.69;;;8.01;100.00
35989;BME280;22064;42.672;23.282;2024-02-26T00:31:52;94209.28;;;8.09;100.00
35989;BME280;22064;42.672;23.282;2024-02-26T00:34:18;94208.72;;;8.18;100.00
35989;BME280;22064;42.672;23.282;2024-02-26T00:36:44;94212.06;;;8.23;100.00
35989;BME280;22064;42.672;23.282;2024-02-26T00:39:11;94205.19;;;8.32;100.00
35989;BME280;22064;42.672;23.282;2024-02-26T00:41:40;94196.06;;;8.30;100.00
35989;BME280;22064;42.672;23.282;2024-02-26T00:44:07;94206.09;;;8.18;100.00
35989;BME280;22064;42.672;23.282;2024-02-26T00:46:32;94182.72;;;7.87;100.00
35989;BME280;22064;42.672;23.282;2024-02-26T00:48:59;94196.44;;;7.53;100.00
35989;BME280;22064;42.672;23.282;2024-02-26T00:51:26;94190.69;;;7.51;100.00
35989;BME280;22064;42.672;23.282;2024-02-26T00:53:52;94196.75;;;7.36;100.00
35989;BME280;22064;42.672;23.282;2024-02-26T00:56:18;94193.25;;;7.66;100.00
35989;BME280;22064;42.672;23.282;2024-02-26T00:58:44;94194.38;;;7.45;100.00
35989;BME280;22064;42.672;23.282;2024-02-26T01:01:09;94183.28;;;7.79;100.00
35989;BME280;22064;42.672;23.282;2024-02-26T01:03:35;94182.56;;;7.58;100.00
35989;BME280;22064;42.672;23.282;2024-02-26T01:06:01;94190.34;;;7.78;100.00
35989;BME280;22064;42.672;23.282;2024-02-26T01:08:27;94186.28;;;7.41;100.00
35989;BME280;22064;42.672;23.282;2024-02-26T01:10:53;94179.22;;;7.52;100.00
35989;BME280;22064;42.672;23.282;2024-02-26T01:13:19;94175.59;;;7.38;100.00
35989;BME280;22064;42.672;23.282;2024-02-26T01:15:45;94169.16;;;7.05;100.00
35989;BME280;22064;42.672;23.282;2024-02-26T01:18:11;94177.78;;;6.95;100.00
35989;BME280;22064;42.672;23.282;2024-02-26T01:20:37;94177.03;;;6.74;100.00
35989;BME280;22064;42.672;23.282;2024-02-26T01:23:03;94179.34;;;7.06;100.00
35989;BME280;22064;42.672;23.282;2024-02-26T01:25:29;94181.94;;;7.16;100.00
35989;BME280;22064;42.672;23.282;2024-02-26T01:27:55;94189.91;;;7.56;100.00
35989;BME280;22064;42.672;23.282;2024-02-26T01:30:21;94176.47;;;7.83;100.00
35989;BME280;22064;42.672;23.282;2024-02-26T01:32:47;94169.59;;;7.97;100.00
35989;BME280;22064;42.672;23.282;2024-02-26T01:35:13;94173.66;;;8.13;100.00
35989;BME280;22064;42.672;23.282;2024-02-26T01:37:39;94168.28;;;7.95;100.00
35989;BME280;22064;42.672;23.282;2024-02-26T01:40:06;94168.03;;;7.96;100.00
35989;BME280;22064;42.672;23.282;2024-02-26T01:42:32;94176.81;;;8.16;100.00
35989;BME280;22064;42.672;23.282;2024-02-26T01:44:59;94166.50;;;8.29;100.00
35989;BME280;22064;42.672;23.282;2024-02-26T01:47:26;94168.88;;;8.26;100.00
35989;BME280;22064;42.672;23.282;2024-02-26T01:49:53;94160.38;;;8.44;100.00
35989;BME280;22064;42.672;23.282;2024-02-26T01:52:20;94159.81;;;8.47;100.00
35989;BME280;22064;42.672;23.282;2024-02-26T01:54:47;94155.16;;;8.39;100.00
35989;BME280;22064;42.672;23.282;2024-02-26T01:57:14;94159.91;;;8.37;100.00
35989;BME280;22064;42.672;23.282;2024-02-26T01:59:41;94157.84;;;8.34;100.00
35989;BME280;22064;42.672;23.282;2024-02-26T02:02:10;94158.28;;;8.46;100.00
35989;BME280;22064;42.672;23.282;2024-02-26T02:04:37;94156.19;;;8.43;100.00
35989;BME280;22064;42.672;23.282;2024-02-26T02:07:03;94158.41;;;8.60;100.00
35989;BME280;22064;42.672;23.282;2024-02-26T02:09:30;94154.72;;;8.27;100.00
35989;BME280;22064;42.672;23.282;2024-02-26T02:11:56;94169.31;;;8.38;100.00
35989;BME280;22064;42.672;23.282;2024-02-26T02:14:24;94146.63;;;7.89;100.00
35989;BME280;22064;42.672;23.282;2024-02-26T02:16:50;94158.06;;;8.03;100.00
35989;BME280;22064;42.672;23.282;2024-02-26T02:19:16;94159.78;;;7.68;100.00
35989;BME280;22064;42.672;23.282;2024-02-26T02:21:42;94159.69;;;7.89;100.00
35989;BME280;22064;42.672;23.282;2024-02-26T02:24:08;94157.97;;;8.13;100.00
35989;BME280;22064;42.672;23.282;2024-02-26T02:26:34;94154.00;;;7.82;100.00
35989;BME280;22064;42.672;23.282;2024-02-26T02:29:01;94160.28;;;8.20;100.00
35989;BME280;22064;42.672;23.282;2024-02-26T02:31:27;94145.31;;;8.31;100.00
35989;BME280;22064;42.672;23.282;2024-02-26T02:33:53;94150.31;;;8.27;100.00
35989;BME280;22064;42.672;23.282;2024-02-26T02:36:19;94144.88;;;7.74;100.00
35989;BME280;22064;42.672;23.282;2024-02-26T02:38:49;94150.47;;;7.52;100.00
35989;BME280;22064;42.672;23.282;2024-02-26T02:41:18;94158.91;;;7.88;100.00
35989;BME280;22064;42.672;23.282;2024-02-26T02:43:45;94161.88;;;8.16;100.00
35989;BME280;22064;42.672;23.282;2024-02-26T02:46:11;94137.72;;;8.29;100.00
35989;BME280;22064;42.672;23.282;2024-02-26T02:48:37;94149.97;;;8.00;100.00
35989;BME280;22064;42.672;23.282;2024-02-26T02:51:04;94159.13;;;7.97;100.00
35989;BME280;22064;42.672;23.282;2024-02-26T02:53:30;94165.81;;;8.19;100.00
35989;BME280;22064;42.672;23.282;2024-02-26T02:55:56;94170.69;;;8.30;100.00
35989;BME280;22064;42.672;23.282;2024-02-26T02:58:22;94174.16;;;8.21;100.00
35989;BME280;22064;42.672;23.282;2024-02-26T03:00:48;94165.59;;;8.05;100.00
35989;BME280;22064;42.672;23.282;2024-02-26T03:03:14;94163.53;;;8.02;100.00
35989;BME280;22064;42.672;23.282;2024-02-26T03:05:40;94151.63;;;8.25;100.00
35989;BME280;22064;42.672;23.282;2024-02-26T03:08:06;94164.75;;;8.54;100.00
35989;BME280;22064;42.672;23.282;2024-02-26T03:10:31;94168.19;;;8.49;100.00
35989;BME280;22064;42.672;23.282;2024-02-26T03:12:57;94168.34;;;8.29;100.00
35989;BME280;22064;42.672;23.282;2024-02-26T03:15:23;94165.53;;;8.54;100.00
35989;BME280;22064;42.672;23.282;2024-02-26T03:17:49;94176.38;;;8.72;100.00
35989;BME280;22064;42.672;23.282;2024-02-26T03:20:15;94172.13;;;8.81;100.00
35989;BME280;22064;42.672;23.282;2024-02-26T03:22:44;94164.69;;;8.88;100.00
35989;BME280;22064;42.672;23.282;2024-02-26T03:25:09;94163.28;;;9.01;100.00
35989;BME280;22064;42.672;23.282;2024-02-26T03:27:35;94156.84;;;8.88;100.00
35989;BME280;22064;42.672;23.282;2024-02-26T03:30:02;94145.94;;;8.52;100.00
35989;BME280;22064;42.672;23.282;2024-02-26T03:32:28;94143.56;;;8.16;100.00
35989;BME280;22064;42.672;23.282;2024-02-26T03:34:54;94149.22;;;7.89;100.00
35989;BME280;22064;42.672;23.282;2024-02-26T03:37:21;94142.47;;;7.83;100.00
35989;BME280;22064;42.672;23.282;2024-02-26T03:39:47;94142.34;;;8.08;100.00
35989;BME280;22064;42.672;23.282;2024-02-26T03:42:13;94139.84;;;8.27;100.00
35989;BME280;22064;42.672;23.282;2024-02-26T03:44:39;94152.50;;;8.49;100.00
35989;BME280;22064;42.672;23.282;2024-02-26T03:47:05;94145.09;;;8.56;100.00
35989;BME280;22064;42.672;23.282;2024-02-26T03:49:31;94144.44;;;8.70;100.00
35989;BME280;22064;42.672;23.282;2024-02-26T03:51:57;94146.84;;;8.66;100.00
35989;BME280;22064;42.672;23.282;2024-02-26T03:54:23;94122.31;;;8.57;100.00
35989;BME280;22064;42.672;23.282;2024-02-26T03:56:49;94135.41;;;8.57;100.00
35989;BME280;22064;42.672;23.282;2024-02-26T03:59:15;94142.94;;;8.64;100.00
35989;BME280;22064;42.672;23.282;2024-02-26T04:01:50;94138.41;;;8.74;100.00
35989;BME280;22064;42.672;23.282;2024-02-26T04:04:17;94141.75;;;8.80;100.00
35989;BME280;22064;42.672;23.282;2024-02-26T04:06:46;94136.72;;;8.54;100.00
35989;BME280;22064;42.672;23.282;2024-02-26T04:09:15;94135.50;;;8.12;100.00
35989;BME280;22064;42.672;23.282;2024-02-26T04:11:41;94133.94;;;8.11;100.00
35989;BME280;22064;42.672;23.282;2024-02-26T04:14:09;94126.78;;;8.22;100.00
35989;BME280;22064;42.672;23.282;2024-02-26T04:16:37;94126.25;;;8.25;100.00
35989;BME280;22064;42.672;23.282;2024-02-26T04:19:02;94126.75;;;7.88;100.00
35989;BME280;22064;42.672;23.282;2024-02-26T04:21:28;94121.00;;;7.86;100.00
35989;BME280;22064;42.672;23.282;2024-02-26T04:23:54;94122.63;;;7.82;100.00
35989;BME280;22064;42.672;23.282;2024-02-26T04:26:21;94110.44;;;8.01;100.00
35989;BME280;22064;42.672;23.282;2024-02-26T04:28:47;94118.69;;;8.24;100.00
35989;BME280;22064;42.672;23.282;2024-02-26T04:31:13;94107.91;;;8.30;100.00
35989;BME280;22064;42.672;23.282;2024-02-26T04:33:39;94118.84;;;8.32;100.00
35989;BME280;22064;42.672;23.282;2024-02-26T04:36:13;94118.03;;;8.37;100.00
35989;BME280;22064;42.672;23.282;2024-02-26T04:38:40;94112.59;;;8.28;100.00
35989;BME280;22064;42.672;23.282;2024-02-26T04:41:06;94118.53;;;8.39;100.00
35989;BME280;22064;42.672;23.282;2024-02-26T04:43:32;94115.88;;;8.44;100.00
35989;BME280;22064;42.672;23.282;2024-02-26T04:45:57;94122.91;;;8.49;100.00
35989;BME280;22064;42.672;23.282;2024-02-26T04:48:23;94113.50;;;8.48;100.00
35989;BME280;22064;42.672;23.282;2024-02-26T04:50:49;94113.84;;;8.36;100.00
35989;BME280;22064;42.672;23.282;2024-02-26T04:53:15;94127.97;;;8.06;100.00
35989;BME280;22064;42.672;23.282;2024-02-26T04:55:41;94136.91;;;7.95;100.00
35989;BME280;22064;42.672;23.282;2024-02-26T04:58:07;94144.53;;;7.91;100.00
35989;BME280;22064;42.672;23.282;2024-02-26T05:00:33;94139.25;;;7.47;100.00
35989;BME280;22064;42.672;23.282;2024-02-26T05:02:59;94131.03;;;7.09;100.00
35989;BME280;22064;42.672;23.282;2024-02-26T05:05:25;94140.78;;;6.37;100.00
35989;BME280;22064;42.672;23.282;2024-02-26T05:07:51;94150.69;;;6.55;100.00
35989;BME280;22064;42.672;23.282;2024-02-26T05:10:17;94164.28;;;6.62;100.00
35989;BME280;22064;42.672;23.282;2024-02-26T05:12:43;94164.75;;;6.80;100.00
35989;BME280;22064;42.672;23.282;2024-02-26T05:15:10;94168.44;;;6.73;100.00
35989;BME280;22064;42.672;23.282;2024-02-26T05:17:36;94164.78;;;6.90;100.00
35989;BME280;22064;42.672;23.282;2024-02-26T05:20:02;94169.59;;;7.32;100.00
35989;BME280;22064;42.672;23.282;2024-02-26T05:22:28;94173.53;;;7.30;100.00
35989;BME280;22064;42.672;23.282;2024-02-26T05:24:54;94169.44;;;7.03;100.00
35989;BME280;22064;42.672;23.282;2024-02-26T05:27:19;94184.06;;;6.89;100.00
35989;BME280;22064;42.672;23.282;2024-02-26T05:29:45;94174.72;;;6.57;100.00
35989;BME280;22064;42.672;23.282;2024-02-26T05:32:11;94186.72;;;6.53;100.00
35989;BME280;22064;42.672;23.282;2024-02-26T05:34:37;94187.19;;;6.29;100.00
35989;BME280;22064;42.672;23.282;2024-02-26T05:37:03;94195.28;;;6.33;100.00
35989;BME280;22064;42.672;23.282;2024-02-26T05:39:29;94195.31;;;6.48;100.00
35989;BME280;22064;42.672;23.282;2024-02-26T05:41:55;94174.69;;;6.37;100.00
35989;BME280;22064;42.672;23.282;2024-02-26T05:44:22;94191.13;;;6.73;100.00
35989;BME280;22064;42.672;23.282;2024-02-26T05:46:48;94191.06;;;7.14;100.00
35989;BME280;22064;42.672;23.282;2024-02-26T05:49:14;94192.28;;;7.47;100.00
35989;BME280;22064;42.672;23.282;2024-02-26T05:51:40;94188.69;;;7.17;100.00
35989;BME280;22064;42.672;23.282;2024-02-26T05:54:07;94196.16;;;7.65;100.00
35989;BME280;22064;42.672;23.282;2024-02-26T05:56:44;94188.75;;;7.82;100.00
35989;BME280;22064;42.672;23.282;2024-02-26T05:59:28;94196.91;;;7.76;100.00
35989;BME280;22064;42.672;23.282;2024-02-26T06:02:07;94190.88;;;7.80;100.00
35989;BME280;22064;42.672;23.282;2024-02-26T06:04:37;94196.63;;;7.72;100.00
35989;BME280;22064;42.672;23.282;2024-02-26T06:07:06;94203.50;;;7.53;100.00
35989;BME280;22064;42.672;23.282;2024-02-26T06:10:06;94205.25;;;7.67;100.00
35989;BME280;22064;42.672;23.282;2024-02-26T06:12:41;94208.75;;;8.07;100.00
35989;BME280;22064;42.672;23.282;2024-02-26T06:15:41;94205.13;;;8.08;100.00
35989;BME280;22064;42.672;23.282;2024-02-26T06:18:19;94206.47;;;8.40;100.00
35989;BME280;22064;42.672;23.282;2024-02-26T06:21:31;94209.44;;;8.63;100.00
35989;BME280;22064;42.672;23.282;2024-02-26T06:24:06;94211.16;;;8.77;100.00
35989;BME280;22064;42.672;23.282;2024-02-26T06:26:37;94205.56;;;8.89;100.00
35989;BME280;22064;42.672;23.282;2024-02-26T06:29:06;94206.81;;;8.97;100.00
35989;BME280;22064;42.672;23.282;2024-02-26T06:31:47;94205.63;;;9.13;100.00
35989;BME280;22064;42.672;23.282;2024-02-26T06:34:45;94192.16;;;9.25;100.00
35989;BME280;22064;42.672;23.282;2024-02-26T06:37:51;94202.50;;;9.35;100.00
35989;BME280;22064;42.672;23.282;2024-02-26T06:40:26;94203.78;;;9.14;100.00
35989;BME280;22064;42.672;23.282;2024-02-26T06:43:02;94205.47;;;9.28;100.00
35989;BME280;22064;42.672;23.282;2024-02-26T06:46:02;94200.22;;;9.28;100.00
35989;BME280;22064;42.672;23.282;2024-02-26T06:48:38;94207.56;;;9.26;100.00
35989;BME280;22064;42.672;23.282;2024-02-26T06:51:14;94206.09;;;9.20;100.00
35989;BME280;22064;42.672;23.282;2024-02-26T06:53:55;94211.41;;;9.39;100.00
35989;BME280;22064;42.672;23.282;2024-02-26T06:56:27;94207.81;;;9.54;100.00
35989;BME280;22064;42.672;23.282;2024-02-26T06:58:56;94206.69;;;9.12;100.00
35989;BME280;22064;42.672;23.282;2024-02-26T07:01:29;94203.03;;;9.37;100.00
35989;BME280;22064;42.672;23.282;2024-02-26T07:03:57;94206.16;;;9.39;100.00
35989;BME280;22064;42.672;23.282;2024-02-26T07:06:27;94211.00;;;9.51;100.00
35989;BME280;22064;42.672;23.282;2024-02-26T07:09:18;94209.09;;;9.57;100.00
35989;BME280;22064;42.672;23.282;2024-02-26T07:11:47;94217.41;;;9.40;100.00
35989;BME280;22064;42.672;23.282;2024-02-26T07:14:31;94227.22;;;9.53;100.00
35989;BME280;22064;42.672;23.282;2024-02-26T07:17:05;94218.41;;;9.68;100.00
35989;BME280;22064;42.672;23.282;2024-02-26T07:19:49;94222.31;;;9.70;100.00
35989;BME280;22064;42.672;23.282;2024-02-26T07:22:30;94226.59;;;9.85;98.27
35989;BME280;22064;42.672;23.282;2024-02-26T07:24:58;94229.00;;;9.82;100.00
35989;BME280;22064;42.672;23.282;2024-02-26T07:27:47;94230.88;;;10.00;96.30
35989;BME280;22064;42.672;23.282;2024-02-26T07:30:34;94221.00;;;9.92;99.15
35989;BME280;22064;42.672;23.282;2024-02-26T07:33:01;94221.13;;;9.58;100.00
35989;BME280;22064;42.672;23.282;2024-02-26T07:35:33;94221.03;;;9.68;100.00
35989;BME280;22064;42.672;23.282;2024-02-26T07:38:08;94216.69;;;10.01;100.00
35989;BME280;22064;42.672;23.282;2024-02-26T07:40:42;94226.31;;;10.30;99.91
35989;BME280;22064;42.672;23.282;2024-02-26T07:43:10;94232.34;;;10.49;97.00
35989;BME280;22064;42.672;23.282;2024-02-26T07:45:39;94229.75;;;10.63;91.44
35989;BME280;22064;42.672;23.282;2024-02-26T07:48:11;94227.56;;;10.70;84.06
35989;BME280;22064;42.672;23.282;2024-02-26T07:50:43;94218.50;;;9.82;96.86
35989;BME280;22064;42.672;23.282;2024-02-26T07:53:11;94223.84;;;8.94;100.00
35989;BME280;22064;42.672;23.282;2024-02-26T07:55:42;94222.88;;;8.85;100.00
35989;BME280;22064;42.672;23.282;2024-02-26T07:58:10;94214.47;;;8.88;100.00
35989;BME280;22064;42.672;23.282;2024-02-26T08:00:36;94205.81;;;8.58;100.00
35989;BME280;22064;42.672;23.282;2024-02-26T08:03:10;94212.91;;;8.87;100.00
35989;BME280;22064;42.672;23.282;2024-02-26T08:05:42;94217.31;;;8.63;100.00
35989;BME280;22064;42.672;23.282;2024-02-26T08:08:13;94214.53;;;8.04;100.00
35989;BME280;22064;42.672;23.282;2024-02-26T08:10:54;94218.91;;;8.19;100.00
35989;BME280;22064;42.672;23.282;2024-02-26T08:13:39;94208.31;;;7.95;100.00
35989;BME280;22064;42.672;23.282;2024-02-26T08:16:07;94221.84;;;8.52;100.00
35989;BME280;22064;42.672;23.282;2024-02-26T08:18:37;94220.53;;;8.10;100.00
35989;BME280;22064;42.672;23.282;2024-02-26T08:21:09;94212.34;;;7.77;100.00
35989;BME280;22064;42.672;23.282;2024-02-26T08:23:54;94211.78;;;7.70;100.00
35989;BME280;22064;42.672;23.282;2024-02-26T08:26:32;94205.25;;;7.78;100.00
35989;BME280;22064;42.672;23.282;2024-02-26T08:29:00;94210.13;;;7.95;100.00
35989;BME280;22064;42.672;23.282;2024-02-26T08:31:26;94216.56;;;8.18;100.00
35989;BME280;22064;42.672;23.282;2024-02-26T08:33:58;94218.09;;;8.24;100.00
35989;BME280;22064;42.672;23.282;2024-02-26T08:36:46;94217.53;;;8.27;100.00
35989;BME280;22064;42.672;23.282;2024-02-26T08:39:14;94212.06;;;7.68;100.00
35989;BME280;22064;42.672;23.282;2024-02-26T08:41:44;94206.47;;;7.96;100.00
35989;BME280;22064;42.672;23.282;2024-02-26T08:44:13;94220.13;;;8.71;100.00
35989;BME280;22064;42.672;23.282;2024-02-26T08:46:41;94219.13;;;8.62;100.00
35989;BME280;22064;42.672;23.282;2024-02-26T08:49:42;94210.88;;;9.13;100.00
35989;BME280;22064;42.672;23.282;2024-02-26T08:52:11;94207.94;;;8.86;100.00
35989;BME280;22064;42.672;23.282;2024-02-26T08:54:52;94213.88;;;8.96;100.00
35989;BME280;22064;42.672;23.282;2024-02-26T08:57:43;94211.38;;;9.15;100.00
35989;BME280;22064;42.672;23.282;2024-02-26T09:00:17;94218.94;;;9.46;100.00
35989;BME280;22064;42.672;23.282;2024-02-26T09:03:31;94209.97;;;9.23;100.00
35989;BME280;22064;42.672;23.282;2024-02-26T09:05:58;94194.03;;;9.43;100.00
35989;BME280;22064;42.672;23.282;2024-02-26T09:08:38;94198.84;;;9.79;100.00
35989;BME280;22064;42.672;23.282;2024-02-26T09:11:25;94207.69;;;9.16;100.00
35989;BME280;22064;42.672;23.282;2024-02-26T09:14:15;94198.59;;;9.09;100.00
35989;BME280;22064;42.672;23.282;2024-02-26T09:16:46;94196.69;;;8.85;100.00
35989;BME280;22064;42.672;23.282;2024-02-26T09:19:20;94196.78;;;8.75;100.00
35989;BME280;22064;42.672;23.282;2024-02-26T09:21:50;94197.44;;;9.20;100.00
35989;BME280;22064;42.672;23.282;2024-02-26T09:24:16;94190.06;;;9.22;100.00
35989;BME280;22064;42.672;23.282;2024-02-26T09:26:45;94194.69;;;9.54;100.00
35989;BME280;22064;42.672;23.282;2024-02-26T09:29:25;94196.78;;;9.33;100.00
35989;BME280;22064;42.672;23.282;2024-02-26T09:32:05;94192.00;;;9.83;100.00
35989;BME280;22064;42.672;23.282;2024-02-26T09:34:43;94190.81;;;10.32;97.06
35989;BME280;22064;42.672;23.282;2024-02-26T09:37:10;94196.91;;;10.98;87.75
35989;BME280;22064;42.672;23.282;2024-02-26T09:39:37;94188.63;;;11.05;81.09
35989;BME280;22064;42.672;23.282;2024-02-26T09:42:12;94188.22;;;11.58;75.14
35989;BME280;22064;42.672;23.282;2024-02-26T09:44:50;94176.22;;;11.38;75.13
35989;BME280;22064;42.672;23.282;2024-02-26T09:47:34;94167.09;;;11.99;68.09
35989;BME280;22064;42.672;23.282;2024-02-26T09:50:37;94163.09;;;12.02;63.46
35989;BME280;22064;42.672;23.282;2024-02-26T09:53:16;94162.44;;;12.33;60.06
35989;BME280;22064;42.672;23.282;2024-02-26T09:55:54;94157.34;;;12.59;58.40
35989;BME280;22064;42.672;23.282;2024-02-26T09:58:22;94156.75;;;12.62;58.04
35989;BME280;22064;42.672;23.282;2024-02-26T10:01:00;94161.16;;;12.75;57.09
35989;BME280;22064;42.672;23.282;2024-02-26T10:03:39;94172.72;;;12.88;56.82
35989;BME280;22064;42.672;23.282;2024-02-26T10:09:31;94157.94;;;13.32;54.46
35989;BME280;22064;42.672;23.282;2024-02-26T10:12:06;94156.44;;;13.48;53.70
35989;BME280;22064;42.672;23.282;2024-02-26T10:14:41;94152.88;;;13.22;53.67
35989;BME280;22064;42.672;23.282;2024-02-26T10:17:16;94149.69;;;13.33;52.70
35989;BME280;22064;42.672;23.282;2024-02-26T10:19:52;94141.91;;;13.28;51.94
35989;BME280;22064;42.672;23.282;2024-02-26T10:22:32;94145.97;;;13.26;51.53
35989;BME280;22064;42.672;23.282;2024-02-26T10:25:01;94130.59;;;13.28;51.61
35989;BME280;22064;42.672;23.282;2024-02-26T10:30:31;94127.38;;;14.14;50.04
35989;BME280;22064;42.672;23.282;2024-02-26T10:33:02;94116.91;;;13.92;49.67
35989;BME280;22064;42.672;23.282;2024-02-26T10:35:33;94114.56;;;13.73;49.56
35989;BME280;22064;42.672;23.282;2024-02-26T10:38:16;94101.06;;;13.83;49.42
35989;BME280;22064;42.672;23.282;2024-02-26T10:40:49;94110.38;;;13.63;50.11
35989;BME280;22064;42.672;23.282;2024-02-26T10:43:22;94106.94;;;13.62;49.82
35989;BME280;22064;42.672;23.282;2024-02-26T10:45:49;94099.44;;;13.38;50.39
35989;BME280;22064;42.672;23.282;2024-02-26T10:48:23;94103.56;;;13.79;49.92
35989;BME280;22064;42.672;23.282;2024-02-26T10:50:54;94093.44;;;13.64;49.12
35989;BME280;22064;42.672;23.282;2024-02-26T10:53:25;94098.53;;;13.52;49.07
35989;BME280;22064;42.672;23.282;2024-02-26T10:56:27;94083.59;;;13.30;48.81
35989;BME280;22064;42.672;23.282;2024-02-26T10:58:59;94094.94;;;13.39;48.81
35989;BME280;22064;42.672;23.282;2024-02-26T11:01:42;94090.41;;;13.31;49.00
35989;BME280;22064;42.672;23.282;2024-02-26T11:04:18;94080.81;;;13.43;48.74
35989;BME280;22064;42.672;23.282;2024-02-26T11:07:11;94082.66;;;13.26;49.00
35989;BME280;22064;42.672;23.282;2024-02-26T11:10:06;94092.97;;;13.71;48.46
35989;BME280;22064;42.672;23.282;2024-02-26T11:12:40;94083.75;;;13.33;48.44
35989;BME280;22064;42.672;23.282;2024-02-26T11:15:15;94083.28;;;13.23;48.62
35989;BME280;22064;42.672;23.282;2024-02-26T11:17:55;94084.88;;;13.01;48.84
35989;BME280;22064;42.672;23.282;2024-02-26T11:20:35;94089.81;;;13.34;48.47
35989;BME280;22064;42.672;23.282;2024-02-26T11:23:09;94081.91;;;13.42;48.10
35989;BME280;22064;42.672;23.282;2024-02-26T11:25:37;94092.19;;;13.61;47.82
35989;BME280;22064;42.672;23.282;2024-02-26T11:28:15;94086.91;;;13.44;47.84
35989;BME280;22064;42.672;23.282;2024-02-26T11:30:50;94079.78;;;13.71;47.27
35989;BME280;22064;42.672;23.282;2024-02-26T11:33:33;94080.09;;;13.78;46.97
35989;BME280;22064;42.672;23.282;2024-02-26T11:36:23;94070.31;;;13.96;46.82
35989;BME280;22064;42.672;23.282;2024-02-26T11:39:14;94074.84;;;14.13;46.46
35989;BME280;22064;42.672;23.282;2024-02-26T11:42:44;94071.25;;;14.00;46.43
35989;BME280;22064;42.672;23.282;2024-02-26T11:48:22;94065.34;;;14.03;46.44
35989;BME280;22064;42.672;23.282;2024-02-26T11:50:57;94073.88;;;14.08;46.64
35989;BME280;22064;42.672;23.282;2024-02-26T11:53:31;94067.38;;;13.97;46.44
35989;BME280;22064;42.672;23.282;2024-02-26T11:56:24;94057.75;;;14.01;46.24
35989;BME280;22064;42.672;23.282;2024-02-26T11:59:10;94048.13;;;13.71;46.64
35989;BME280;22064;42.672;23.282;2024-02-26T12:01:49;94056.47;;;13.55;46.74
35989;BME280;22064;42.672;23.282;2024-02-26T12:04:33;94061.47;;;13.57;46.50
35989;BME280;22064;42.672;23.282;2024-02-26T12:07:06;94058.34;;;13.55;45.83
35989;BME280;22064;42.672;23.282;2024-02-26T12:09:42;94067.19;;;13.50;45.69
35989;BME280;22064;42.672;23.282;2024-02-26T12:12:28;94068.31;;;13.67;45.10
35989;BME280;22064;42.672;23.282;2024-02-26T12:15:07;94062.88;;;13.63;44.75
35989;BME280;22064;42.672;23.282;2024-02-26T12:17:42;94071.56;;;13.89;44.68
35989;BME280;22064;42.672;23.282;2024-02-26T12:20:17;94068.47;;;14.05;44.33
35989;BME280;22064;42.672;23.282;2024-02-26T12:22:52;94066.28;;;13.81;44.33
35989;BME280;22064;42.672;23.282;2024-02-26T12:25:28;94071.09;;;13.79;44.62
35989;BME280;22064;42.672;23.282;2024-02-26T12:27:55;94077.63;;;13.90;44.44
35989;BME280;22064;42.672;23.282;2024-02-26T12:30:26;94081.84;;;13.91;43.77
35989;BME280;22064;42.672;23.282;2024-02-26T12:33:02;94075.78;;;13.82;43.92
35989;BME280;22064;42.672;23.282;2024-02-26T12:35:33;94086.78;;;13.93;43.71
35989;BME280;22064;42.672;23.282;2024-02-26T12:38:17;94084.00;;;13.98;43.57
35989;BME280;22064;42.672;23.282;2024-02-26T12:41:01;94083.84;;;13.94;43.34
35989;BME280;22064;42.672;23.282;2024-02-26T12:43:31;94079.00;;;13.87;43.60
35989;BME280;22064;42.672;23.282;2024-02-26T12:46:06;94082.13;;;13.98;42.99
35989;BME280;22064;42.672;23.282;2024-02-26T12:48:44;94080.72;;;13.92;43.48
35989;BME280;22064;42.672;23.282;2024-02-26T12:51:16;94079.31;;;14.12;43.30
35989;BME280;22064;42.672;23.282;2024-02-26T12:53:51;94083.09;;;14.28;42.93
35989;BME280;22064;42.672;23.282;2024-02-26T12:56:19;94086.31;;;14.43;42.47
35989;BME280;22064;42.672;23.282;2024-02-26T12:59:12;94078.56;;;14.38;42.01
35989;BME280;22064;42.672;23.282;2024-02-26T13:01:46;94074.22;;;14.33;41.90
35989;BME280;22064;42.672;23.282;2024-02-26T13:04:14;94070.94;;;14.10;41.86
35989;BME280;22064;42.672;23.282;2024-02-26T13:07:02;94075.47;;;14.27;41.81
35989;BME280;22064;42.672;23.282;2024-02-26T13:09:34;94079.75;;;14.57;41.26
35989;BME280;22064;42.672;23.282;2024-02-26T13:12:29;94063.25;;;14.69;41.17
35989;BME280;22064;42.672;23.282;2024-02-26T13:15:24;94074.47;;;14.57;41.29
35989;BME280;22064;42.672;23.282;2024-02-26T13:17:55;94067.66;;;14.56;40.98
35989;BME280;22064;42.672;23.282;2024-02-26T13:20:40;94080.66;;;14.70;40.84
35989;BME280;22064;42.672;23.282;2024-02-26T13:23:13;94073.50;;;14.71;41.03
35989;BME280;22064;42.672;23.282;2024-02-26T13:25:49;94072.25;;;15.15;40.05